KMLI/MLI METAR and TAF weather

Enter ICAO airport designator
Station Type Date Time Source
KMLI METAR 2022/12/05 14:52 UTC NOAA

KMLI 051452Z 00000KT 10SM CLR 02/M05 A2986 RMK AO2 SLP117 T00171050 51008


Station Type Date Time Source
KMLI Decoded METAR 2022/12/05 14:52 UTC NOAA

MOLINE QUAD-CITY AIRPORT, IL, United States (KMLI) 41-27N 90-31W 184M
Dec 05, 2022 - 09:52 AM EST / 2022.12.05 1452 UTC
Wind: Calm:0
Visibility: 10 mile(s):0
Sky conditions: clear
Temperature: 35.1 F (1.7 C)
Dew Point: 23.0 F (-5.0 C)
Relative Humidity: 61%
Pressure (altimeter): 29.86 in. Hg (1011 hPa)
Pressure tendency: 0.02 inches (0.8 hPa) higher than three hours ago
ob: KMLI 051452Z 00000KT 10SM CLR 02/M05 A2986 RMK AO2 SLP117 T00171050 51008
cycle: 15

Station Type Date Time Source
KMLI TAF 2022/12/05 12:42 UTC NOAA

TAF KMLI 051139Z 0512/0612 21005KT P6SM BKN100
FM051700 21008KT P6SM BKN200
FM060100 34005KT P6SM BKN100

Example: see airport list